sensor_id;sensor_type;location;lat;lon;timestamp;P1;durP1;ratioP1;P2;durP2;ratioP2
35667;SDS011;22158;59.280;17.806;2022-12-18T05:02:02;11.27;;;6.22;;
35667;SDS011;22158;59.280;17.806;2022-12-18T05:04:28;12.65;;;7.00;;
35667;SDS011;22158;59.280;17.806;2022-12-18T05:06:53;14.35;;;7.38;;
35667;SDS011;22158;59.280;17.806;2022-12-18T05:09:19;17.30;;;7.53;;
35667;SDS011;22158;59.280;17.806;2022-12-18T05:11:45;12.13;;;7.40;;
35667;SDS011;22158;59.280;17.806;2022-12-18T05:14:11;15.32;;;8.00;;
35667;SDS011;22158;59.280;17.806;2022-12-18T05:16:37;14.65;;;6.82;;
35667;SDS011;22158;59.280;17.806;2022-12-18T05:19:03;17.10;;;8.05;;
35667;SDS011;22158;59.280;17.806;2022-12-18T05:21:28;15.52;;;7.00;;
35667;SDS011;22158;59.280;17.806;2022-12-18T05:23:54;15.70;;;7.15;;
35667;SDS011;22158;59.280;17.806;2022-12-18T05:26:20;17.15;;;7.65;;
35667;SDS011;22158;59.280;17.806;2022-12-18T05:28:45;16.73;;;7.32;;
35667;SDS011;22158;59.280;17.806;2022-12-18T05:31:11;20.13;;;7.47;;
35667;SDS011;22158;59.280;17.806;2022-12-18T05:33:37;11.73;;;6.65;;
35667;SDS011;22158;59.280;17.806;2022-12-18T05:36:04;18.27;;;7.97;;
35667;SDS011;22158;59.280;17.806;2022-12-18T05:38:32;12.55;;;6.43;;
35667;SDS011;22158;59.280;17.806;2022-12-18T05:40:59;15.07;;;6.65;;
35667;SDS011;22158;59.280;17.806;2022-12-18T05:43:25;13.13;;;7.32;;
35667;SDS011;22158;59.280;17.806;2022-12-18T05:45:51;20.23;;;8.18;;
35667;SDS011;22158;59.280;17.806;2022-12-18T05:48:18;15.23;;;7.78;;
35667;SDS011;22158;59.280;17.806;2022-12-18T05:50:44;17.25;;;6.97;;
35667;SDS011;22158;59.280;17.806;2022-12-18T05:53:11;14.43;;;5.97;;
35667;SDS011;22158;59.280;17.806;2022-12-18T05:55:39;14.65;;;6.60;;
35667;SDS011;22158;59.280;17.806;2022-12-18T05:58:06;11.27;;;6.07;;
35667;SDS011;22158;59.280;17.806;2022-12-18T06:00:34;14.20;;;6.65;;
35667;SDS011;22158;59.280;17.806;2022-12-18T06:03:01;14.18;;;7.03;;
35667;SDS011;22158;59.280;17.806;2022-12-18T06:05:27;15.90;;;6.90;;
35667;SDS011;22158;59.280;17.806;2022-12-18T06:07:52;12.30;;;6.40;;
35667;SDS011;22158;59.280;17.806;2022-12-18T06:10:18;12.88;;;6.72;;
35667;SDS011;22158;59.280;17.806;2022-12-18T06:12:44;11.13;;;5.72;;
35667;SDS011;22158;59.280;17.806;2022-12-18T06:15:10;14.07;;;6.68;;
35667;SDS011;22158;59.280;17.806;2022-12-18T06:17:35;16.45;;;6.47;;
35667;SDS011;22158;59.280;17.806;2022-12-18T06:20:01;13.45;;;6.65;;
35667;SDS011;22158;59.280;17.806;2022-12-18T06:22:30;17.95;;;8.57;;
35667;SDS011;22158;59.280;17.806;2022-12-18T06:24:56;19.40;;;8.00;;
35667;SDS011;22158;59.280;17.806;2022-12-18T06:27:22;16.10;;;5.93;;
35667;SDS011;22158;59.280;17.806;2022-12-18T06:29:48;17.73;;;6.70;;
35667;SDS011;22158;59.280;17.806;2022-12-18T06:32:13;13.52;;;7.05;;
35667;SDS011;22158;59.280;17.806;2022-12-18T06:34:39;12.70;;;7.00;;
35667;SDS011;22158;59.280;17.806;2022-12-18T06:37:05;14.80;;;6.63;;
35667;SDS011;22158;59.280;17.806;2022-12-18T06:39:31;12.70;;;5.90;;
35667;SDS011;22158;59.280;17.806;2022-12-18T06:41:56;12.63;;;6.25;;
35667;SDS011;22158;59.280;17.806;2022-12-18T06:44:22;12.63;;;6.10;;
35667;SDS011;22158;59.280;17.806;2022-12-18T06:46:48;14.57;;;6.30;;
35667;SDS011;22158;59.280;17.806;2022-12-18T06:49:14;17.25;;;7.45;;
35667;SDS011;22158;59.280;17.806;2022-12-18T06:51:41;13.43;;;6.13;;
35667;SDS011;22158;59.280;17.806;2022-12-18T06:54:07;12.88;;;6.75;;
35667;SDS011;22158;59.280;17.806;2022-12-18T06:56:33;18.15;;;7.22;;
35667;SDS011;22158;59.280;17.806;2022-12-18T06:58:59;12.75;;;6.03;;
35667;SDS011;22158;59.280;17.806;2022-12-18T07:01:24;12.93;;;6.35;;
35667;SDS011;22158;59.280;17.806;2022-12-18T07:03:54;14.20;;;6.68;;
35667;SDS011;22158;59.280;17.806;2022-12-18T07:06:21;14.75;;;6.47;;
35667;SDS011;22158;59.280;17.806;2022-12-18T07:08:48;14.57;;;7.13;;
35667;SDS011;22158;59.280;17.806;2022-12-18T07:11:15;15.55;;;6.88;;
35667;SDS011;22158;59.280;17.806;2022-12-18T07:13:41;13.93;;;7.25;;
35667;SDS011;22158;59.280;17.806;2022-12-18T07:16:17;14.77;;;7.35;;
35667;SDS011;22158;59.280;17.806;2022-12-18T07:18:44;14.75;;;7.03;;
35667;SDS011;22158;59.280;17.806;2022-12-18T07:21:11;14.38;;;6.93;;
35667;SDS011;22158;59.280;17.806;2022-12-18T07:23:38;14.85;;;7.13;;
35667;SDS011;22158;59.280;17.806;2022-12-18T07:26:05;12.57;;;6.97;;
35667;SDS011;22158;59.280;17.806;2022-12-18T07:28:36;17.25;;;7.25;;
35667;SDS011;22158;59.280;17.806;2022-12-18T07:31:04;14.35;;;6.60;;
35667;SDS011;22158;59.280;17.806;2022-12-18T07:33:37;15.55;;;7.47;;
35667;SDS011;22158;59.280;17.806;2022-12-18T07:36:03;14.43;;;6.72;;
35667;SDS011;22158;59.280;17.806;2022-12-18T07:38:32;22.05;;;8.18;;
35667;SDS011;22158;59.280;17.806;2022-12-18T07:41:07;16.05;;;7.40;;
35667;SDS011;22158;59.280;17.806;2022-12-18T07:43:34;15.30;;;7.90;;
35667;SDS011;22158;59.280;17.806;2022-12-18T07:46:00;16.25;;;7.45;;
35667;SDS011;22158;59.280;17.806;2022-12-18T07:48:27;18.77;;;8.15;;
35667;SDS011;22158;59.280;17.806;2022-12-18T07:50:53;20.67;;;7.22;;
35667;SDS011;22158;59.280;17.806;2022-12-18T07:53:19;14.85;;;7.75;;
35667;SDS011;22158;59.280;17.806;2022-12-18T07:55:44;16.35;;;6.53;;
35667;SDS011;22158;59.280;17.806;2022-12-18T07:58:10;16.05;;;7.70;;
35667;SDS011;22158;59.280;17.806;2022-12-18T08:00:36;17.38;;;8.82;;
35667;SDS011;22158;59.280;17.806;2022-12-18T08:03:02;16.13;;;8.15;;
35667;SDS011;22158;59.280;17.806;2022-12-18T08:05:27;15.05;;;8.35;;
35667;SDS011;22158;59.280;17.806;2022-12-18T08:07:53;20.20;;;9.07;;
35667;SDS011;22158;59.280;17.806;2022-12-18T08:10:19;15.35;;;8.25;;
35667;SDS011;22158;59.280;17.806;2022-12-18T08:12:48;16.33;;;8.05;;
35667;SDS011;22158;59.280;17.806;2022-12-18T08:15:14;21.10;;;8.43;;
35667;SDS011;22158;59.280;17.806;2022-12-18T08:17:40;14.07;;;6.68;;
35667;SDS011;22158;59.280;17.806;2022-12-18T08:20:06;18.77;;;8.65;;
35667;SDS011;22158;59.280;17.806;2022-12-18T08:22:33;20.20;;;9.55;;
35667;SDS011;22158;59.280;17.806;2022-12-18T08:25:00;24.05;;;8.18;;
35667;SDS011;22158;59.280;17.806;2022-12-18T08:27:26;16.23;;;8.55;;
35667;SDS011;22158;59.280;17.806;2022-12-18T08:29:52;19.38;;;9.68;;
35667;SDS011;22158;59.280;17.806;2022-12-18T08:32:18;16.00;;;9.30;;
35667;SDS011;22158;59.280;17.806;2022-12-18T08:34:43;19.40;;;9.95;;
35667;SDS011;22158;59.280;17.806;2022-12-18T08:37:09;20.67;;;9.48;;
35667;SDS011;22158;59.280;17.806;2022-12-18T08:39:35;22.67;;;8.52;;
35667;SDS011;22158;59.280;17.806;2022-12-18T08:42:00;17.73;;;8.73;;
35667;SDS011;22158;59.280;17.806;2022-12-18T08:44:45;16.52;;;8.55;;
35667;SDS011;22158;59.280;17.806;2022-12-18T08:47:10;16.08;;;7.82;;
35667;SDS011;22158;59.280;17.806;2022-12-18T08:49:36;21.23;;;9.32;;
35667;SDS011;22158;59.280;17.806;2022-12-18T08:52:02;18.42;;;8.73;;
35667;SDS011;22158;59.280;17.806;2022-12-18T08:54:28;17.13;;;9.05;;
35667;SDS011;22158;59.280;17.806;2022-12-18T08:56:54;15.15;;;7.55;;
35667;SDS011;22158;59.280;17.806;2022-12-18T08:59:19;18.35;;;10.20;;
35667;SDS011;22158;59.280;17.806;2022-12-18T09:01:45;17.83;;;9.52;;
35667;SDS011;22158;59.280;17.806;2022-12-18T09:04:12;19.35;;;8.32;;
35667;SDS011;22158;59.280;17.806;2022-12-18T09:06:39;14.55;;;8.52;;
35667;SDS011;22158;59.280;17.806;2022-12-18T09:09:05;15.80;;;8.57;;
35667;SDS011;22158;59.280;17.806;2022-12-18T09:11:31;15.30;;;7.72;;
35667;SDS011;22158;59.280;17.806;2022-12-18T09:13:58;18.40;;;8.20;;
35667;SDS011;22158;59.280;17.806;2022-12-18T09:16:26;13.27;;;7.72;;
35667;SDS011;22158;59.280;17.806;2022-12-18T09:18:53;17.58;;;8.95;;
35667;SDS011;22158;59.280;17.806;2022-12-18T09:21:24;13.25;;;8.00;;
35667;SDS011;22158;59.280;17.806;2022-12-18T09:23:52;16.55;;;8.48;;
35667;SDS011;22158;59.280;17.806;2022-12-18T09:26:20;15.52;;;9.10;;
35667;SDS011;22158;59.280;17.806;2022-12-18T09:28:46;17.05;;;8.43;;
35667;SDS011;22158;59.280;17.806;2022-12-18T09:31:13;11.07;;;6.80;;
35667;SDS011;22158;59.280;17.806;2022-12-18T09:33:40;17.20;;;8.02;;
35667;SDS011;22158;59.280;17.806;2022-12-18T09:36:06;16.35;;;8.73;;
35667;SDS011;22158;59.280;17.806;2022-12-18T09:38:34;15.07;;;8.45;;
35667;SDS011;22158;59.280;17.806;2022-12-18T09:41:03;12.57;;;7.25;;
35667;SDS011;22158;59.280;17.806;2022-12-18T09:43:51;15.95;;;8.70;;
35667;SDS011;22158;59.280;17.806;2022-12-18T09:47:05;13.48;;;8.43;;
35667;SDS011;22158;59.280;17.806;2022-12-18T09:49:31;18.30;;;8.63;;
35667;SDS011;22158;59.280;17.806;2022-12-18T09:52:05;16.10;;;9.43;;
35667;SDS011;22158;59.280;17.806;2022-12-18T09:55:00;17.23;;;7.72;;
35667;SDS011;22158;59.280;17.806;2022-12-18T09:57:42;18.02;;;8.45;;
35667;SDS011;22158;59.280;17.806;2022-12-18T10:00:19;14.10;;;8.27;;
35667;SDS011;22158;59.280;17.806;2022-12-18T10:02:47;16.63;;;8.68;;
35667;SDS011;22158;59.280;17.806;2022-12-18T10:05:15;16.77;;;7.65;;
35667;SDS011;22158;59.280;17.806;2022-12-18T10:10:26;14.85;;;8.57;;
35667;SDS011;22158;59.280;17.806;2022-12-18T10:18:57;18.85;;;9.10;;
35667;SDS011;22158;59.280;17.806;2022-12-18T10:21:39;17.88;;;7.65;;
35667;SDS011;22158;59.280;17.806;2022-12-18T10:26:59;15.77;;;7.60;;
35667;SDS011;22158;59.280;17.806;2022-12-18T10:29:41;16.42;;;7.35;;
35667;SDS011;22158;59.280;17.806;2022-12-18T10:32:09;17.80;;;9.70;;
35667;SDS011;22158;59.280;17.806;2022-12-18T10:34:49;16.23;;;8.60;;
35667;SDS011;22158;59.280;17.806;2022-12-18T10:37:17;16.02;;;8.20;;
35667;SDS011;22158;59.280;17.806;2022-12-18T10:39:45;16.63;;;8.48;;
35667;SDS011;22158;59.280;17.806;2022-12-18T10:42:16;13.32;;;7.88;;
35667;SDS011;22158;59.280;17.806;2022-12-18T10:44:43;15.30;;;7.75;;
35667;SDS011;22158;59.280;17.806;2022-12-18T10:47:15;15.95;;;7.70;;
35667;SDS011;22158;59.280;17.806;2022-12-18T10:49:52;18.58;;;9.90;;
35667;SDS011;22158;59.280;17.806;2022-12-18T10:52:21;16.30;;;7.93;;
35667;SDS011;22158;59.280;17.806;2022-12-18T10:54:53;14.52;;;8.77;;
35667;SDS011;22158;59.280;17.806;2022-12-18T10:59:55;14.95;;;8.48;;
35667;SDS011;22158;59.280;17.806;2022-12-18T11:02:35;12.75;;;7.72;;
35667;SDS011;22158;59.280;17.806;2022-12-18T11:05:03;15.98;;;6.53;;
35667;SDS011;22158;59.280;17.806;2022-12-18T11:07:51;17.67;;;7.07;;
35667;SDS011;22158;59.280;17.806;2022-12-18T11:10:19;16.40;;;6.95;;
35667;SDS011;22158;59.280;17.806;2022-12-18T11:12:47;16.10;;;8.35;;
35667;SDS011;22158;59.280;17.806;2022-12-18T11:15:18;15.52;;;7.93;;
35667;SDS011;22158;59.280;17.806;2022-12-18T11:17:51;17.13;;;7.13;;
35667;SDS011;22158;59.280;17.806;2022-12-18T11:20:22;14.82;;;7.10;;
35667;SDS011;22158;59.280;17.806;2022-12-18T11:23:03;14.40;;;7.38;;
35667;SDS011;22158;59.280;17.806;2022-12-18T11:25:31;17.40;;;8.60;;
35667;SDS011;22158;59.280;17.806;2022-12-18T11:28:02;14.52;;;8.18;;
35667;SDS011;22158;59.280;17.806;2022-12-18T11:30:30;12.65;;;7.20;;
35667;SDS011;22158;59.280;17.806;2022-12-18T11:35:42;27.60;;;8.50;;
35667;SDS011;22158;59.280;17.806;2022-12-18T11:38:26;16.25;;;7.68;;
35667;SDS011;22158;59.280;17.806;2022-12-18T11:43:44;14.07;;;6.70;;
35667;SDS011;22158;59.280;17.806;2022-12-18T11:46:30;15.23;;;8.65;;
35667;SDS011;22158;59.280;17.806;2022-12-18T11:49:07;14.48;;;7.88;;
35667;SDS011;22158;59.280;17.806;2022-12-18T11:52:02;14.27;;;9.30;;
35667;SDS011;22158;59.280;17.806;2022-12-18T11:54:34;14.43;;;7.60;;
35667;SDS011;22158;59.280;17.806;2022-12-18T11:57:49;15.80;;;8.38;;
35667;SDS011;22158;59.280;17.806;2022-12-18T12:13:44;15.40;;;6.78;;
35667;SDS011;22158;59.280;17.806;2022-12-18T12:16:22;14.93;;;7.43;;
35667;SDS011;22158;59.280;17.806;2022-12-18T12:21:42;11.20;;;6.60;;
35667;SDS011;22158;59.280;17.806;2022-12-18T12:24:33;15.00;;;7.55;;
35667;SDS011;22158;59.280;17.806;2022-12-18T12:29:46;12.32;;;5.88;;
35667;SDS011;22158;59.280;17.806;2022-12-18T12:40:34;19.58;;;8.05;;
35667;SDS011;22158;59.280;17.806;2022-12-18T12:45:52;17.58;;;7.53;;
35667;SDS011;22158;59.280;17.806;2022-12-18T12:51:08;10.57;;;6.55;;
35667;SDS011;22158;59.280;17.806;2022-12-18T12:53:41;19.50;;;8.85;;
35667;SDS011;22158;59.280;17.806;2022-12-18T12:56:08;13.82;;;7.32;;
35667;SDS011;22158;59.280;17.806;2022-12-18T12:58:41;14.30;;;7.75;;
35667;SDS011;22158;59.280;17.806;2022-12-18T13:04:40;13.27;;;7.17;;
35667;SDS011;22158;59.280;17.806;2022-12-18T13:07:14;10.93;;;4.50;;
35667;SDS011;22158;59.280;17.806;2022-12-18T13:15:23;16.45;;;8.38;;
35667;SDS011;22158;59.280;17.806;2022-12-18T13:20:34;10.75;;;6.10;;
35667;SDS011;22158;59.280;17.806;2022-12-18T13:23:01;13.48;;;5.68;;
35667;SDS011;22158;59.280;17.806;2022-12-18T13:25:57;14.57;;;6.57;;
35667;SDS011;22158;59.280;17.806;2022-12-18T13:31:12;12.25;;;6.43;;
35667;SDS011;22158;59.280;17.806;2022-12-18T13:33:50;12.48;;;5.40;;
35667;SDS011;22158;59.280;17.806;2022-12-18T13:38:47;8.07;;;4.55;;
35667;SDS011;22158;59.280;17.806;2022-12-18T13:41:39;13.57;;;5.55;;
35667;SDS011;22158;59.280;17.806;2022-12-18T13:46:45;11.75;;;5.20;;
35667;SDS011;22158;59.280;17.806;2022-12-18T13:51:39;11.00;;;5.47;;
35667;SDS011;22158;59.280;17.806;2022-12-18T13:57:01;13.98;;;7.57;;
35667;SDS011;22158;59.280;17.806;2022-12-18T13:59:35;12.20;;;5.93;;
35667;SDS011;22158;59.280;17.806;2022-12-18T14:02:15;13.18;;;5.35;;
35667;SDS011;22158;59.280;17.806;2022-12-18T14:04:45;14.27;;;5.93;;
35667;SDS011;22158;59.280;17.806;2022-12-18T14:07:15;10.68;;;5.22;;
35667;SDS011;22158;59.280;17.806;2022-12-18T14:09:44;10.13;;;4.75;;
35667;SDS011;22158;59.280;17.806;2022-12-18T14:12:20;9.38;;;4.85;;
35667;SDS011;22158;59.280;17.806;2022-12-18T14:15:06;11.38;;;4.72;;
35667;SDS011;22158;59.280;17.806;2022-12-18T14:17:47;10.23;;;4.00;;
35667;SDS011;22158;59.280;17.806;2022-12-18T14:20:15;8.45;;;4.35;;
35667;SDS011;22158;59.280;17.806;2022-12-18T14:22:43;12.82;;;4.82;;
35667;SDS011;22158;59.280;17.806;2022-12-18T14:25:24;10.23;;;4.97;;
35667;SDS011;22158;59.280;17.806;2022-12-18T14:33:16;9.90;;;5.03;;
35667;SDS011;22158;59.280;17.806;2022-12-18T14:40:58;12.15;;;5.45;;
35667;SDS011;22158;59.280;17.806;2022-12-18T14:45:56;10.90;;;4.30;;
35667;SDS011;22158;59.280;17.806;2022-12-18T14:51:02;11.27;;;4.55;;
35667;SDS011;22158;59.280;17.806;2022-12-18T14:53:43;13.32;;;4.25;;
35667;SDS011;22158;59.280;17.806;2022-12-18T14:56:15;8.90;;;4.07;;
35667;SDS011;22158;59.280;17.806;2022-12-18T14:58:45;10.45;;;4.28;;
35667;SDS011;22158;59.280;17.806;2022-12-18T15:01:23;6.05;;;3.80;;
35667;SDS011;22158;59.280;17.806;2022-12-18T15:03:50;9.75;;;4.55;;
35667;SDS011;22158;59.280;17.806;2022-12-18T15:06:36;6.63;;;3.28;;
35667;SDS011;22158;59.280;17.806;2022-12-18T15:09:18;6.10;;;3.70;;
35667;SDS011;22158;59.280;17.806;2022-12-18T15:11:49;11.10;;;3.72;;
35667;SDS011;22158;59.280;17.806;2022-12-18T15:14:31;12.52;;;4.10;;
35667;SDS011;22158;59.280;17.806;2022-12-18T15:17:03;6.75;;;3.58;;
35667;SDS011;22158;59.280;17.806;2022-12-18T15:19:39;9.00;;;3.45;;
35667;SDS011;22158;59.280;17.806;2022-12-18T15:22:25;8.43;;;3.40;;
35667;SDS011;22158;59.280;17.806;2022-12-18T15:24:52;9.88;;;3.65;;
35667;SDS011;22158;59.280;17.806;2022-12-18T15:27:27;5.15;;;3.00;;
35667;SDS011;22158;59.280;17.806;2022-12-18T15:32:33;6.40;;;3.00;;
35667;SDS011;22158;59.280;17.806;2022-12-18T15:35:22;6.38;;;4.55;;
35667;SDS011;22158;59.280;17.806;2022-12-18T15:37:48;4.93;;;2.92;;
35667;SDS011;22158;59.280;17.806;2022-12-18T15:40:16;5.68;;;3.17;;
35667;SDS011;22158;59.280;17.806;2022-12-18T15:42:44;5.85;;;2.33;;
35667;SDS011;22158;59.280;17.806;2022-12-18T15:45:29;9.05;;;3.40;;
35667;SDS011;22158;59.280;17.806;2022-12-18T15:47:54;9.95;;;3.75;;
35667;SDS011;22158;59.280;17.806;2022-12-18T15:50:20;6.38;;;3.00;;
35667;SDS011;22158;59.280;17.806;2022-12-18T15:52:47;6.93;;;2.90;;
35667;SDS011;22158;59.280;17.806;2022-12-18T15:55:15;4.75;;;3.20;;
35667;SDS011;22158;59.280;17.806;2022-12-18T15:58:03;8.10;;;3.35;;
35667;SDS011;22158;59.280;17.806;2022-12-18T16:00:29;10.82;;;4.40;;
35667;SDS011;22158;59.280;17.806;2022-12-18T16:02:56;6.88;;;3.30;;
35667;SDS011;22158;59.280;17.806;2022-12-18T16:05:22;8.27;;;3.58;;
35667;SDS011;22158;59.280;17.806;2022-12-18T16:07:48;7.95;;;2.97;;
35667;SDS011;22158;59.280;17.806;2022-12-18T16:10:14;14.55;;;2.92;;
35667;SDS011;22158;59.280;17.806;2022-12-18T16:12:40;8.40;;;2.40;;
35667;SDS011;22158;59.280;17.806;2022-12-18T16:15:06;5.70;;;2.40;;
35667;SDS011;22158;59.280;17.806;2022-12-18T16:17:34;3.97;;;2.05;;
35667;SDS011;22158;59.280;17.806;2022-12-18T16:20:00;7.10;;;2.65;;
35667;SDS011;22158;59.280;17.806;2022-12-18T16:22:27;6.75;;;2.85;;
35667;SDS011;22158;59.280;17.806;2022-12-18T16:24:54;9.80;;;2.90;;
35667;SDS011;22158;59.280;17.806;2022-12-18T16:27:21;7.93;;;3.05;;
35667;SDS011;22158;59.280;17.806;2022-12-18T16:29:47;5.82;;;3.00;;
35667;SDS011;22158;59.280;17.806;2022-12-18T16:32:15;8.55;;;3.78;;
35667;SDS011;22158;59.280;17.806;2022-12-18T16:34:46;4.10;;;2.20;;
35667;SDS011;22158;59.280;17.806;2022-12-18T16:37:13;7.47;;;2.08;;
35667;SDS011;22158;59.280;17.806;2022-12-18T16:39:40;5.40;;;2.85;;
35667;SDS011;22158;59.280;17.806;2022-12-18T16:42:13;9.55;;;3.50;;
35667;SDS011;22158;59.280;17.806;2022-12-18T16:44:41;6.65;;;2.95;;
35667;SDS011;22158;59.280;17.806;2022-12-18T16:47:08;5.28;;;2.42;;
35667;SDS011;22158;59.280;17.806;2022-12-18T16:49:34;13.48;;;3.13;;
35667;SDS011;22158;59.280;17.806;2022-12-18T16:52:00;9.43;;;2.13;;
35667;SDS011;22158;59.280;17.806;2022-12-18T16:54:26;6.20;;;2.42;;
35667;SDS011;22158;59.280;17.806;2022-12-18T16:56:54;9.85;;;2.90;;
35667;SDS011;22158;59.280;17.806;2022-12-18T16:59:21;4.60;;;2.42;;
35667;SDS011;22158;59.280;17.806;2022-12-18T17:01:46;5.22;;;2.20;;
35667;SDS011;22158;59.280;17.806;2022-12-18T17:04:12;7.88;;;2.17;;
35667;SDS011;22158;59.280;17.806;2022-12-18T17:06:40;4.28;;;2.47;;
35667;SDS011;22158;59.280;17.806;2022-12-18T17:09:10;4.03;;;2.40;;
35667;SDS011;22158;59.280;17.806;2022-12-18T17:11:39;7.75;;;1.90;;
35667;SDS011;22158;59.280;17.806;2022-12-18T17:14:05;5.00;;;2.10;;
35667;SDS011;22158;59.280;17.806;2022-12-18T17:16:31;5.45;;;2.38;;
35667;SDS011;22158;59.280;17.806;2022-12-18T17:18:57;15.07;;;2.95;;
35667;SDS011;22158;59.280;17.806;2022-12-18T17:21:23;7.30;;;2.17;;
35667;SDS011;22158;59.280;17.806;2022-12-18T17:23:49;6.93;;;2.53;;
35667;SDS011;22158;59.280;17.806;2022-12-18T17:26:15;10.50;;;2.17;;
35667;SDS011;22158;59.280;17.806;2022-12-18T17:28:41;7.03;;;2.10;;
35667;SDS011;22158;59.280;17.806;2022-12-18T17:31:16;6.78;;;2.58;;
35667;SDS011;22158;59.280;17.806;2022-12-18T17:33:43;9.15;;;2.08;;
35667;SDS011;22158;59.280;17.806;2022-12-18T17:36:10;6.38;;;1.88;;
35667;SDS011;22158;59.280;17.806;2022-12-18T17:38:36;9.27;;;2.65;;
35667;SDS011;22158;59.280;17.806;2022-12-18T17:41:04;5.47;;;2.25;;
35667;SDS011;22158;59.280;17.806;2022-12-18T17:43:32;8.00;;;2.22;;
35667;SDS011;22158;59.280;17.806;2022-12-18T17:46:03;6.65;;;2.50;;
35667;SDS011;22158;59.280;17.806;2022-12-18T17:48:30;11.38;;;3.65;;
35667;SDS011;22158;59.280;17.806;2022-12-18T17:51:02;8.82;;;2.78;;
35667;SDS011;22158;59.280;17.806;2022-12-18T17:53:29;7.68;;;2.15;;
35667;SDS011;22158;59.280;17.806;2022-12-18T17:55:55;8.88;;;2.13;;
35667;SDS011;22158;59.280;17.806;2022-12-18T17:58:22;6.13;;;2.30;;
35667;SDS011;22158;59.280;17.806;2022-12-18T18:00:48;3.85;;;2.35;;
35667;SDS011;22158;59.280;17.806;2022-12-18T18:03:13;6.63;;;2.28;;
35667;SDS011;22158;59.280;17.806;2022-12-18T18:05:39;9.52;;;2.60;;
35667;SDS011;22158;59.280;17.806;2022-12-18T18:08:05;7.72;;;2.30;;
35667;SDS011;22158;59.280;17.806;2022-12-18T18:10:31;6.28;;;2.75;;
35667;SDS011;22158;59.280;17.806;2022-12-18T18:13:02;2.65;;;1.90;;
35667;SDS011;22158;59.280;17.806;2022-12-18T18:15:54;7.50;;;2.08;;
35667;SDS011;22158;59.280;17.806;2022-12-18T18:18:23;7.85;;;2.40;;
35667;SDS011;22158;59.280;17.806;2022-12-18T18:20:49;12.15;;;2.70;;
35667;SDS011;22158;59.280;17.806;2022-12-18T18:23:15;6.90;;;2.17;;
35667;SDS011;22158;59.280;17.806;2022-12-18T18:25:40;6.13;;;2.20;;
35667;SDS011;22158;59.280;17.806;2022-12-18T18:28:06;6.80;;;2.25;;
35667;SDS011;22158;59.280;17.806;2022-12-18T18:30:32;5.10;;;2.25;;
35667;SDS011;22158;59.280;17.806;2022-12-18T18:32:58;10.65;;;2.58;;
35667;SDS011;22158;59.280;17.806;2022-12-18T18:35:23;4.78;;;2.13;;
35667;SDS011;22158;59.280;17.806;2022-12-18T18:37:49;7.72;;;2.42;;
35667;SDS011;22158;59.280;17.806;2022-12-18T18:40:15;6.95;;;2.58;;
35667;SDS011;22158;59.280;17.806;2022-12-18T18:42:40;10.55;;;2.38;;
35667;SDS011;22158;59.280;17.806;2022-12-18T18:45:06;7.57;;;2.35;;
35667;SDS011;22158;59.280;17.806;2022-12-18T18:47:32;12.52;;;3.20;;
35667;SDS011;22158;59.280;17.806;2022-12-18T18:49:58;5.18;;;1.90;;
35667;SDS011;22158;59.280;17.806;2022-12-18T18:52:24;5.00;;;2.38;;
35667;SDS011;22158;59.280;17.806;2022-12-18T18:54:49;10.55;;;2.72;;
35667;SDS011;22158;59.280;17.806;2022-12-18T18:57:15;10.55;;;1.85;;
35667;SDS011;22158;59.280;17.806;2022-12-18T18:59:41;22.60;;;4.55;;
35667;SDS011;22158;59.280;17.806;2022-12-18T19:02:11;7.63;;;3.00;;
35667;SDS011;22158;59.280;17.806;2022-12-18T19:04:37;6.93;;;2.85;;
35667;SDS011;22158;59.280;17.806;2022-12-18T19:07:04;10.75;;;3.10;;
35667;SDS011;22158;59.280;17.806;2022-12-18T19:09:30;9.77;;;2.75;;
35667;SDS011;22158;59.280;17.806;2022-12-18T19:11:56;7.20;;;2.50;;
35667;SDS011;22158;59.280;17.806;2022-12-18T19:14:40;7.50;;;2.50;;
35667;SDS011;22158;59.280;17.806;2022-12-18T19:17:06;7.47;;;2.72;;
35667;SDS011;22158;59.280;17.806;2022-12-18T19:19:32;15.35;;;3.20;;
35667;SDS011;22158;59.280;17.806;2022-12-18T19:21:58;11.00;;;2.78;;
35667;SDS011;22158;59.280;17.806;2022-12-18T19:24:24;9.70;;;2.42;;
35667;SDS011;22158;59.280;17.806;2022-12-18T19:26:50;6.28;;;1.98;;
35667;SDS011;22158;59.280;17.806;2022-12-18T19:29:16;14.88;;;2.70;;
35667;SDS011;22158;59.280;17.806;2022-12-18T19:31:42;10.02;;;2.38;;
35667;SDS011;22158;59.280;17.806;2022-12-18T19:34:08;10.25;;;3.08;;
35667;SDS011;22158;59.280;17.806;2022-12-18T19:36:36;10.68;;;2.05;;
35667;SDS011;22158;59.280;17.806;2022-12-18T19:39:07;13.15;;;2.97;;
35667;SDS011;22158;59.280;17.806;2022-12-18T19:41:35;5.75;;;3.53;;
35667;SDS011;22158;59.280;17.806;2022-12-18T19:44:01;13.98;;;3.13;;
35667;SDS011;22158;59.280;17.806;2022-12-18T19:46:26;9.63;;;3.45;;
35667;SDS011;22158;59.280;17.806;2022-12-18T19:48:52;11.23;;;2.80;;
35667;SDS011;22158;59.280;17.806;2022-12-18T19:53:48;6.18;;;2.30;;
35667;SDS011;22158;59.280;17.806;2022-12-18T19:56:15;12.30;;;2.20;;
35667;SDS011;22158;59.280;17.806;2022-12-18T19:58:43;10.00;;;2.33;;
35667;SDS011;22158;59.280;17.806;2022-12-18T20:01:10;13.15;;;2.80;;
35667;SDS011;22158;59.280;17.806;2022-12-18T20:03:36;11.68;;;2.20;;
35667;SDS011;22158;59.280;17.806;2022-12-18T20:08:33;5.15;;;2.15;;
35667;SDS011;22158;59.280;17.806;2022-12-18T20:10:59;8.15;;;1.92;;
35667;SDS011;22158;59.280;17.806;2022-12-18T20:13:25;9.60;;;2.30;;
35667;SDS011;22158;59.280;17.806;2022-12-18T20:15:51;8.32;;;2.20;;
35667;SDS011;22158;59.280;17.806;2022-12-18T20:18:16;4.97;;;1.88;;
35667;SDS011;22158;59.280;17.806;2022-12-18T20:20:42;8.52;;;2.10;;
35667;SDS011;22158;59.280;17.806;2022-12-18T20:23:08;10.60;;;2.13;;
35667;SDS011;22158;59.280;17.806;2022-12-18T20:25:33;9.13;;;1.92;;
35667;SDS011;22158;59.280;17.806;2022-12-18T20:28:00;12.50;;;3.42;;
35667;SDS011;22158;59.280;17.806;2022-12-18T20:30:26;5.05;;;2.13;;
35667;SDS011;22158;59.280;17.806;2022-12-18T20:32:52;12.82;;;2.00;;
35667;SDS011;22158;59.280;17.806;2022-12-18T20:35:17;3.13;;;1.55;;
35667;SDS011;22158;59.280;17.806;2022-12-18T20:37:43;6.35;;;1.83;;
35667;SDS011;22158;59.280;17.806;2022-12-18T20:40:09;7.00;;;2.22;;
35667;SDS011;22158;59.280;17.806;2022-12-18T20:42:34;3.60;;;1.65;;
35667;SDS011;22158;59.280;17.806;2022-12-18T20:45:00;6.18;;;2.10;;
35667;SDS011;22158;59.280;17.806;2022-12-18T20:47:26;4.30;;;1.90;;
35667;SDS011;22158;59.280;17.806;2022-12-18T20:49:52;5.20;;;2.65;;
35667;SDS011;22158;59.280;17.806;2022-12-18T20:52:17;3.33;;;2.22;;
35667;SDS011;22158;59.280;17.806;2022-12-18T20:54:43;5.43;;;2.20;;
35667;SDS011;22158;59.280;17.806;2022-12-18T20:57:09;6.20;;;2.03;;
35667;SDS011;22158;59.280;17.806;2022-12-18T20:59:34;4.15;;;2.70;;
35667;SDS011;22158;59.280;17.806;2022-12-18T21:02:00;4.50;;;3.20;;
35667;SDS011;22158;59.280;17.806;2022-12-18T21:04:26;10.88;;;2.20;;
35667;SDS011;22158;59.280;17.806;2022-12-18T21:06:52;3.50;;;1.77;;
35667;SDS011;22158;59.280;17.806;2022-12-18T21:09:18;14.32;;;2.30;;
35667;SDS011;22158;59.280;17.806;2022-12-18T21:11:44;8.50;;;2.17;;
35667;SDS011;22158;59.280;17.806;2022-12-18T21:14:29;7.70;;;2.20;;
35667;SDS011;22158;59.280;17.806;2022-12-18T21:16:55;5.72;;;2.15;;
35667;SDS011;22158;59.280;17.806;2022-12-18T21:19:23;5.70;;;1.50;;